Startpagina
METAR-TAF:

METAR-TAF

Vliegvelden :

Luchthaven Ouagadougou Internationaal

Ouagadougou, Burkina Faso

breedte: 12-21N, lengte: 001-31W, hoogte: 316 m

Actueel weer

Dit bericht is 43 minuten geleden gemaakt, om 11:00 UTC
Wind 10 kt uit het noordoosten
Temperatuur 35°C
Vochtigheid 18%
Druk 1013 hPa
Zicht: 8000 m

METAR: DFFD 161100Z 04010KT 8000 NSC 35/07 Q1013 NOSIG

Tijdstip: 11:43 (11:43 UTC)

Verwachting

Dit bericht is 43 minuten geleden gemaakt, om 11:00 UTC
Verwachting geldig van 16 om 12 UTC tot 17 om 18 UTC
Wind 8 kt uit het oosten
Zicht: 8000 m
Tijdelijke
van 16 om 17 UTC tot 16 om 20 UTC
Zicht: 3500 m
Heiigheid
Tijdelijke
van 17 om 06 UTC tot 17 om 10 UTC
Zicht: 2000 m
Heiigheid

TAF: DFFD 161100Z 1612/1718 10008KT 8000 NSC TEMPO 1617/1620 3500 HZ TEMPO 1706/1710 2000 HZ

Waarnemingen en weersverwachtingen van meer dan 4000 vliegvelden (METAR en TAF).

De beschikbare stations zijn de gele en rode punten op de kaart.

Ga met uw muis naar het station om de naam te zien.

Klik dan om waarnemingen en weersverwachtingen te zien.

kaart wijzigen: klik op de groene knoppen met een zwart kruis om in te zoomen, op de groene knop met een streepje om uit te zoomen of op de groene pijlen voor aangrenzende kaarten.


METAR-TAF: